Douglas, WY (82633)

10:38 PM MDT on April 27, 2017 (GMT -0600)
Ridgewater Rd | | Change Station
Active Advisory: Winter Storm Warning

Elev 4885 ft 42.74 °N, 105.43 °W | Updated 3 seconds ago

Overcast
Overcast
37.0 °F
Feels Like 33 °F
N
4.9
Wind Variable Wind from NNW
Gusts 6.9 mph

Today
High -- | Low -- °F
--% Chance of Precip.
Yesterday
High -- | Low -- °F
Precip. -- in
Pressure 29.61 in
Visibility 10.0 miles
Clouds Overcast 1300 ft
Windchill 33 °F
Dew Point 37 °F
Humidity 99%
Rainfall 0.53 in
Snow Depth Not available.
6:01 AM 7:57 PM
Waxing Crescent, 4% visible
METAR KDGW 280353Z AUTO 05008KT 10SM OVC013 03/02 A2962 RMK AO2 SLP027 T00280017
Pressure 29.61 in
Visibility 10.0 miles
Clouds Overcast 1300 ft
Windchill 33 °F
Dew Point 37 °F
Humidity 99%
Rainfall 0.53 in
Snow Depth Not available.
6:01 AM 7:57 PM
Waxing Crescent, 4% visible
METAR KDGW 280353Z AUTO 05008KT 10SM OVC013 03/02 A2962 RMK AO2 SLP027 T00280017

Get Your Daily Forecast Email!

Thanks for signing up!

Be on the lookout for a verification email in your inbox.

You'll start receiving severe weather alerts in your inbox..

×

10-Day Weather Forecast

Almanac

Astronomy

Apr. 27, 2017 Rise Set
Actual Time
Civil Twilight
Nautical Twilight
Astronomical Twilight
Moon
Length of Visible Light
Length of Day
Tomorrow will be .
, % of the Moon is Illuminated

Today's Extremes

State Highs State Lows

Community

WunderPhotos

WunderBlog® & News

Nearby

Air Quality

  Air Quality AQ Index Pollutant
Not available.

Snow Depth

Station Depth Elevation

Earthquake Activity

City Distance Mag. Time & Date
Minimum magnitude displayed is 2.5.

Coastal Water Temperatures

Place Temperature

Stations

Nearby Weather Stations

Station Location Temp. Windchill Dew Point Humidity Wind Precip. Elev Updated Type
                   

Watches & Warnings

Winter Storm Warning
Issued: 2:11 PM MDT Apr. 27, 2017 – National Weather Service

... Winter Storm Warning remains in effect from 6 PM this evening
to 6 PM MDT Friday...

* timing... rain will change to snow early this evening, with
moderate to heavy snow at times through Friday afternoon.

* Total snow accumulations... 4 to 10 inches, heaviest along
ridges.

* Winds/visibility..east to northeast winds 10 to 20 mph with
higher gusts. Visibilities will be reduced to a half mile or
less at times in snow and blowing snow.

* Impacts... travel will be extremely hazardous due to snow covered
roads and low visibilities. Heavy snow on fully leafed trees
could cause tree damage, with the possibility of tree branches
falling onto power lines and causing power outages.

Precautionary/preparedness actions...

A Winter Storm Warning for heavy snow means severe winter weather
conditions are expected or occurring. Significant amounts of snow
are forecast that will make travel dangerous. Only travel in an
emergency. If you must travel... keep an extra flashlight... food... and
water in your vehicle in case of an emergency.